createdAt,value
2022-08-04T00:00:13.939Z,1.60
2022-08-04T00:02:59.722Z,1.77
2022-08-04T00:05:54.211Z,1.85
2022-08-04T00:08:48.635Z,1.60
2022-08-04T00:11:25.051Z,1.33
2022-08-04T00:14:12.793Z,1.90
2022-08-04T00:16:41.922Z,1.58
2022-08-04T00:19:16.518Z,1.90
2022-08-04T00:21:48.030Z,1.92
2022-08-04T00:24:16.154Z,1.45
2022-08-04T00:26:43.647Z,2.00
2022-08-04T00:29:10.752Z,1.50
2022-08-04T00:31:54.773Z,1.40
2022-08-04T00:34:28.283Z,2.00
2022-08-04T00:36:56.454Z,1.60
2022-08-04T00:39:23.677Z,1.80
2022-08-04T00:42:17.625Z,1.60
2022-08-04T00:45:02.295Z,1.48
2022-08-04T00:47:56.650Z,1.48
2022-08-04T00:51:05.260Z,1.70
2022-08-04T00:53:50.197Z,1.75
2022-08-04T00:56:42.702Z,2.15
2022-08-04T00:59:09.314Z,1.67
2022-08-04T01:01:55.259Z,2.35
2022-08-04T01:04:45.646Z,1.67
2022-08-04T01:07:40.872Z,1.60
2022-08-04T01:10:27.781Z,2.05
2022-08-04T01:13:29.534Z,1.80
2022-08-04T01:16:07.599Z,1.80
2022-08-04T01:19:01.193Z,1.92
2022-08-04T01:21:40.124Z,2.47
2022-08-04T01:24:23.095Z,1.80
2022-08-04T01:27:01.226Z,2.20
2022-08-04T01:29:48.676Z,1.45
2022-08-04T01:32:30.965Z,1.95
2022-08-04T01:35:05.197Z,1.92
2022-08-04T01:37:45.082Z,1.55
2022-08-04T01:40:14.650Z,2.10
2022-08-04T01:42:42.891Z,1.92
2022-08-04T01:45:12.125Z,2.00
2022-08-04T01:47:43.081Z,1.85
2022-08-04T01:50:13.272Z,2.47
2022-08-04T01:52:47.607Z,2.55
2022-08-04T01:55:18.062Z,2.35
2022-08-04T01:57:47.061Z,2.22
2022-08-04T02:00:17.325Z,2.00
2022-08-04T02:02:45.676Z,1.85
2022-08-04T02:05:15.869Z,2.13
2022-08-04T02:08:15.724Z,1.90
2022-08-04T02:10:42.359Z,1.88
2022-08-04T02:13:41.589Z,2.20
2022-08-04T02:16:20.430Z,1.65
2022-08-04T02:19:24.666Z,2.13
2022-08-04T02:21:57.758Z,1.90
2022-08-04T02:24:27.839Z,2.00
2022-08-04T02:26:56.579Z,2.05
2022-08-04T02:29:37.767Z,2.47
2022-08-04T02:32:07.412Z,2.50
2022-08-04T02:34:39.889Z,2.30
2022-08-04T02:37:09.085Z,2.50
2022-08-04T02:39:48.808Z,1.95
2022-08-04T02:42:18.000Z,1.77
2022-08-04T02:44:50.599Z,1.80
2022-08-04T02:47:21.717Z,3.03
2022-08-04T02:49:51.318Z,1.85
2022-08-04T02:52:19.910Z,2.17
2022-08-04T02:54:50.811Z,2.33
2022-08-04T02:57:20.046Z,2.30
2022-08-04T03:00:19.837Z,2.13
2022-08-04T03:02:56.218Z,2.90
2022-08-04T03:05:27.998Z,1.90
2022-08-04T03:08:21.497Z,2.72
2022-08-04T03:10:58.984Z,2.47
2022-08-04T03:14:02.067Z,2.38
2022-08-04T03:17:09.747Z,2.00
2022-08-04T03:20:11.651Z,2.35
2022-08-04T03:23:13.433Z,2.50
2022-08-04T03:26:02.142Z,2.38
2022-08-04T03:29:06.191Z,2.50
2022-08-04T03:35:03.450Z,2.03
2022-08-04T03:37:57.488Z,2.50
2022-08-04T03:40:59.294Z,2.85
2022-08-04T03:44:02.760Z,2.20
2022-08-04T03:46:53.947Z,2.65
2022-08-04T03:49:20.565Z,2.35
2022-08-04T03:52:17.837Z,2.13
2022-08-04T03:55:21.606Z,2.60
2022-08-04T03:57:53.655Z,2.10
2022-08-04T04:00:34.149Z,2.03
2022-08-04T04:03:29.127Z,2.78
2022-08-04T04:06:23.248Z,2.40
2022-08-04T04:09:21.128Z,2.38
2022-08-04T04:12:07.493Z,2.80
2022-08-04T04:14:37.109Z,2.05
2022-08-04T04:17:41.416Z,2.40
2022-08-04T04:20:26.419Z,2.47
2022-08-04T04:22:56.114Z,2.47
2022-08-04T04:26:03.719Z,2.33
2022-08-04T04:28:49.586Z,2.33
2022-08-04T04:31:45.430Z,1.50
2022-08-04T04:34:45.642Z,1.83
2022-08-04T04:37:30.381Z,2.25
2022-08-04T04:40:03.581Z,2.20
2022-08-04T04:42:36.208Z,2.40
2022-08-04T04:45:31.854Z,2.05
2022-08-04T04:48:16.349Z,2.75
2022-08-04T04:51:10.836Z,2.47
2022-08-04T04:54:00.547Z,2.83
2022-08-04T04:56:38.665Z,2.13
2022-08-04T04:59:15.405Z,2.67
2022-08-04T05:02:12.713Z,2.10
2022-08-04T05:04:54.637Z,2.35
2022-08-04T05:07:50.245Z,2.25
2022-08-04T05:10:40.799Z,1.90
2022-08-04T05:14:37.802Z,1.83
2022-08-04T05:16:35.904Z,2.42
2022-08-04T05:19:08.565Z,1.75
2022-08-04T05:21:43.910Z,2.58
2022-08-04T05:24:13.925Z,2.33
2022-08-04T05:26:51.502Z,2.30
2022-08-04T05:29:37.653Z,2.13
2022-08-04T05:32:13.038Z,2.33
2022-08-04T05:34:43.718Z,2.50
2022-08-04T05:37:17.147Z,2.67
2022-08-04T05:39:53.226Z,2.50
2022-08-04T05:42:21.364Z,2.28
2022-08-04T05:44:51.270Z,2.10
2022-08-04T05:47:21.316Z,2.35
2022-08-04T05:50:01.406Z,2.05
2022-08-04T05:52:31.436Z,2.22
2022-08-04T05:55:00.289Z,2.08
2022-08-04T05:57:28.341Z,2.45
2022-08-04T05:59:57.372Z,2.10
2022-08-04T06:02:25.301Z,2.20
2022-08-04T06:04:53.062Z,2.00
2022-08-04T06:07:20.077Z,1.80
2022-08-04T06:09:46.962Z,1.83
2022-08-04T06:12:27.777Z,2.00
2022-08-04T06:14:57.778Z,1.75
2022-08-04T06:18:33.550Z,1.90
2022-08-04T06:20:23.180Z,1.67
2022-08-04T06:22:59.936Z,1.80
2022-08-04T06:25:33.020Z,2.35
2022-08-04T06:28:01.533Z,1.70
2022-08-04T06:30:32.198Z,2.67
2022-08-04T06:33:04.372Z,1.98
2022-08-04T06:35:33.113Z,2.00
2022-08-04T06:38:01.622Z,2.10
2022-08-04T06:40:33.216Z,1.85
2022-08-04T06:43:02.858Z,2.00
2022-08-04T06:45:31.106Z,2.20
2022-08-04T06:47:58.911Z,2.00
2022-08-04T06:51:28.203Z,2.40
2022-08-04T06:53:14.009Z,2.33
2022-08-04T06:55:43.451Z,1.80
2022-08-04T06:58:10.773Z,2.60
2022-08-04T07:00:39.274Z,1.95
2022-08-04T07:03:07.446Z,1.95
2022-08-04T07:05:35.850Z,2.15
2022-08-04T07:08:03.702Z,1.90
2022-08-04T07:10:31.466Z,1.77
2022-08-04T07:12:59.830Z,2.00
2022-08-04T07:15:27.180Z,1.77
2022-08-04T07:17:54.977Z,1.88
2022-08-04T07:20:35.044Z,2.08
2022-08-04T07:23:06.518Z,1.60
2022-08-04T07:25:59.532Z,2.05
2022-08-04T07:28:27.116Z,2.25
2022-08-04T07:30:55.156Z,2.17
2022-08-04T07:33:23.382Z,2.13
2022-08-04T07:36:04.695Z,1.95
2022-08-04T07:38:48.338Z,1.85
2022-08-04T07:41:37.756Z,2.00
2022-08-04T07:44:05.122Z,1.58
2022-08-04T07:46:32.182Z,2.05
2022-08-04T07:49:01.174Z,2.00
2022-08-04T07:51:30.404Z,1.48
2022-08-04T07:53:58.092Z,2.00
2022-08-04T07:56:26.650Z,1.88
2022-08-04T07:58:54.042Z,1.55
2022-08-04T08:01:21.535Z,1.75
2022-08-04T08:03:49.484Z,1.92
2022-08-04T08:06:32.972Z,2.00
2022-08-04T08:09:13.765Z,1.70
2022-08-04T08:12:36.347Z,1.60
2022-08-04T08:14:36.688Z,1.58
2022-08-04T08:17:04.600Z,1.52
2022-08-04T08:19:32.836Z,2.00
2022-08-04T08:22:01.436Z,2.17
2022-08-04T08:24:30.480Z,1.77
2022-08-04T08:26:57.630Z,1.67
2022-08-04T08:29:25.732Z,1.80
2022-08-04T08:31:57.320Z,2.42
2022-08-04T08:34:30.844Z,1.67
2022-08-04T08:37:20.666Z,2.00
2022-08-04T08:40:04.242Z,1.65
2022-08-04T08:44:06.271Z,1.88
2022-08-04T08:46:45.559Z,1.70
2022-08-04T08:50:02.847Z,1.55
2022-08-04T08:53:00.984Z,1.60
2022-08-04T08:55:58.102Z,1.70
2022-08-04T08:58:48.726Z,2.20
2022-08-04T09:01:52.082Z,2.00
2022-08-04T09:04:38.116Z,1.85
2022-08-04T09:07:32.944Z,1.50
2022-08-04T09:10:36.114Z,1.92
2022-08-04T09:13:08.423Z,1.90
2022-08-04T09:15:54.291Z,1.90
2022-08-04T09:18:32.452Z,1.77
2022-08-04T09:21:23.173Z,1.80
2022-08-04T09:24:36.302Z,1.65
2022-08-04T09:27:01.935Z,1.65
2022-08-04T09:29:48.463Z,1.30
2022-08-04T09:32:38.996Z,1.60
2022-08-04T09:35:39.143Z,1.67
2022-08-04T09:38:33.043Z,1.58
2022-08-04T09:41:20.739Z,1.60
2022-08-04T09:44:50.052Z,2.05
2022-08-04T09:47:39.392Z,1.40
2022-08-04T09:50:31.768Z,1.75
2022-08-04T09:53:06.420Z,1.55
2022-08-04T09:55:54.099Z,1.50
2022-08-04T09:58:40.759Z,1.33
2022-08-04T10:01:22.495Z,1.50
2022-08-04T10:03:58.957Z,1.63
2022-08-04T10:06:42.653Z,1.45
2022-08-04T10:09:40.684Z,1.73
2022-08-04T10:12:31.453Z,1.75
2022-08-04T10:15:25.484Z,1.92
2022-08-04T10:18:18.237Z,1.33
2022-08-04T10:21:13.494Z,1.35
2022-08-04T10:24:09.818Z,1.38
2022-08-04T10:26:56.871Z,1.67
2022-08-04T10:29:46.743Z,1.75
2022-08-04T10:32:25.069Z,1.55
2022-08-04T10:35:21.070Z,1.52
2022-08-04T10:38:01.199Z,1.70
2022-08-04T10:40:45.472Z,1.67
2022-08-04T10:43:21.013Z,1.70
2022-08-04T10:46:01.641Z,1.48
2022-08-04T10:48:58.976Z,1.60
2022-08-04T10:51:58.299Z,1.60
2022-08-04T10:54:51.078Z,1.80
2022-08-04T10:57:21.119Z,1.60
2022-08-04T11:00:00.541Z,2.40
2022-08-04T11:02:55.593Z,2.72
2022-08-04T11:05:25.585Z,2.80
2022-08-04T11:08:00.397Z,2.92
2022-08-04T11:10:32.383Z,2.55
2022-08-04T11:13:29.630Z,2.95
2022-08-04T11:16:02.236Z,2.95
2022-08-04T11:18:41.023Z,2.58
2022-08-04T11:21:31.434Z,2.05
2022-08-04T11:24:16.163Z,2.00
2022-08-04T11:26:55.937Z,1.85
2022-08-04T11:29:34.273Z,1.83
2022-08-04T11:32:04.574Z,1.52
2022-08-04T11:34:33.562Z,1.67
2022-08-04T11:37:13.887Z,2.15
2022-08-04T11:39:49.209Z,1.92
2022-08-04T11:42:30.669Z,1.50
2022-08-04T11:45:16.461Z,1.80
2022-08-04T11:47:55.279Z,1.63
2022-08-04T11:50:29.196Z,1.88
2022-08-04T11:52:58.130Z,2.20
2022-08-04T11:55:27.771Z,1.92
2022-08-04T11:57:55.719Z,1.85
2022-08-04T12:00:25.005Z,1.83
2022-08-04T12:03:18.770Z,2.15
2022-08-04T12:06:18.092Z,1.83
2022-08-04T12:09:04.071Z,2.30
2022-08-04T12:11:33.869Z,2.10
2022-08-04T12:14:27.205Z,2.50
2022-08-04T12:17:02.658Z,2.03
2022-08-04T12:20:04.098Z,1.67
2022-08-04T12:22:41.439Z,1.33
2022-08-04T12:25:16.193Z,1.63
2022-08-04T12:27:47.455Z,1.50
2022-08-04T12:30:58.403Z,1.63
2022-08-04T12:33:12.824Z,1.65
2022-08-04T12:36:05.162Z,1.45
2022-08-04T12:38:47.100Z,1.70
2022-08-04T12:41:20.586Z,2.13
2022-08-04T12:43:47.435Z,1.58
2022-08-04T12:46:26.710Z,1.92
2022-08-04T12:49:01.386Z,1.75
2022-08-04T12:52:05.666Z,2.05
2022-08-04T12:54:29.037Z,2.00
2022-08-04T12:56:59.013Z,2.03
2022-08-04T12:59:26.084Z,2.05
2022-08-04T13:02:10.484Z,2.00
2022-08-04T13:04:42.440Z,1.95
2022-08-04T13:07:37.243Z,2.08
2022-08-04T13:10:13.759Z,2.13
2022-08-04T13:12:55.016Z,2.58
2022-08-04T13:15:23.789Z,2.35
2022-08-04T13:18:14.861Z,2.70
2022-08-04T13:20:43.515Z,2.55
2022-08-04T13:23:21.493Z,2.28
2022-08-04T13:28:42.655Z,2.50
2022-08-04T13:30:24.377Z,2.85
2022-08-04T13:31:14.277Z,2.50
2022-08-04T13:33:46.353Z,2.58
2022-08-04T13:36:14.237Z,2.75
2022-08-04T13:38:53.662Z,2.60
2022-08-04T13:41:22.344Z,2.30
2022-08-04T13:44:19.471Z,2.70
2022-08-04T13:46:51.008Z,2.50
2022-08-04T13:52:10.681Z,2.35
2022-08-04T13:54:44.623Z,2.78
2022-08-04T13:57:23.655Z,2.72
2022-08-04T14:00:01.519Z,2.10
2022-08-04T14:02:37.710Z,2.30
2022-08-04T14:05:19.988Z,2.22
2022-08-04T14:08:17.901Z,2.55
2022-08-04T14:10:54.357Z,2.20
2022-08-04T14:13:41.208Z,2.30
2022-08-04T14:16:17.177Z,2.30
2022-08-04T14:18:44.198Z,1.90
2022-08-04T14:21:15.505Z,1.77
2022-08-04T14:23:56.500Z,1.77
2022-08-04T14:26:33.845Z,1.92
2022-08-04T14:29:26.342Z,2.20
2022-08-04T14:32:03.133Z,2.13
2022-08-04T14:34:31.142Z,2.05
2022-08-04T14:37:18.248Z,1.70
2022-08-04T14:40:17.888Z,2.20
2022-08-04T14:42:54.316Z,2.10
2022-08-04T14:45:30.423Z,2.20
2022-08-04T14:47:57.876Z,1.98
2022-08-04T14:50:39.544Z,1.77
2022-08-04T14:53:13.431Z,2.00
2022-08-04T14:55:44.607Z,2.15
2022-08-04T14:58:34.800Z,1.92
2022-08-04T15:01:09.907Z,2.03
2022-08-04T15:03:49.831Z,2.15
2022-08-04T15:06:22.736Z,1.70
2022-08-04T15:08:55.242Z,1.77
2022-08-04T15:11:24.064Z,1.70
2022-08-04T15:13:52.735Z,1.60
2022-08-04T15:16:20.831Z,1.98
2022-08-04T15:18:49.165Z,1.80
2022-08-04T15:21:17.369Z,1.48
2022-08-04T15:23:44.285Z,1.70
2022-08-04T15:26:15.958Z,1.83
2022-08-04T15:28:50.094Z,2.22
2022-08-04T15:32:04.437Z,1.58
2022-08-04T15:34:08.561Z,1.38
2022-08-04T15:36:42.137Z,1.95
2022-08-04T15:39:36.175Z,1.40
2022-08-04T15:42:16.130Z,1.80
2022-08-04T15:44:51.642Z,1.35
2022-08-04T15:47:18.573Z,1.35
2022-08-04T15:49:45.712Z,1.45
2022-08-04T15:52:18.150Z,1.33
2022-08-04T15:54:52.536Z,1.30
2022-08-04T15:58:02.147Z,1.50
2022-08-04T16:00:49.437Z,1.40
2022-08-04T16:03:53.155Z,1.58
2022-08-04T16:06:26.865Z,1.52
2022-08-04T16:09:04.838Z,1.40
2022-08-04T16:11:37.057Z,1.42
2022-08-04T16:14:03.904Z,1.25
2022-08-04T16:16:36.677Z,1.60
2022-08-04T16:19:09.066Z,1.15
2022-08-04T16:21:48.684Z,1.35
2022-08-04T16:24:22.591Z,1.17
2022-08-04T16:26:56.535Z,1.40
2022-08-04T16:29:23.487Z,1.23
2022-08-04T16:32:05.749Z,1.40
2022-08-04T16:34:49.409Z,1.25
2022-08-04T16:37:19.089Z,1.55
2022-08-04T16:39:49.659Z,1.52
2022-08-04T16:42:29.938Z,1.65
2022-08-04T16:45:17.111Z,1.60
2022-08-04T16:48:07.811Z,1.63
2022-08-04T16:50:49.321Z,1.50
2022-08-04T16:53:53.037Z,1.60
2022-08-04T16:56:06.746Z,1.95
2022-08-04T16:58:36.727Z,2.03
2022-08-04T17:01:28.388Z,1.48
2022-08-04T17:04:04.956Z,1.88
2022-08-04T17:06:41.364Z,1.30
2022-08-04T17:09:16.925Z,1.90
2022-08-04T17:11:45.082Z,1.75
2022-08-04T17:14:11.856Z,1.65
2022-08-04T17:16:43.456Z,2.00
2022-08-04T17:19:23.857Z,1.67
2022-08-04T17:22:03.007Z,1.50
2022-08-04T17:24:31.945Z,1.60
2022-08-04T17:26:59.310Z,1.70
2022-08-04T17:29:44.319Z,1.83
2022-08-04T17:32:20.673Z,1.58
2022-08-04T17:34:53.965Z,2.03
2022-08-04T17:37:52.122Z,1.40
2022-08-04T17:40:22.479Z,1.80
2022-08-04T17:44:04.772Z,1.48
2022-08-04T17:46:28.095Z,1.52
2022-08-04T17:49:12.070Z,1.52
2022-08-04T17:52:06.317Z,1.75
2022-08-04T17:54:39.734Z,1.92
2022-08-04T17:57:19.981Z,1.60
2022-08-04T17:59:57.163Z,2.15
2022-08-04T18:02:35.043Z,1.65
2022-08-04T18:05:11.518Z,1.80
2022-08-04T18:08:39.005Z,1.67
2022-08-04T18:10:44.689Z,1.48
2022-08-04T18:13:27.634Z,2.08
2022-08-04T18:16:04.722Z,1.60
2022-08-04T18:18:31.625Z,1.42
2022-08-04T18:21:02.982Z,1.40
2022-08-04T18:23:32.590Z,1.50
2022-08-04T18:26:02.311Z,1.40
2022-08-04T18:28:30.712Z,1.50
2022-08-04T18:31:00.194Z,1.88
2022-08-04T18:33:40.174Z,2.10
2022-08-04T18:36:33.809Z,2.08
2022-08-04T18:39:12.575Z,1.75
2022-08-04T18:42:02.407Z,1.83
2022-08-04T18:44:31.041Z,1.60
2022-08-04T18:47:19.288Z,1.50
2022-08-04T18:51:00.404Z,2.05
2022-08-04T18:52:33.186Z,1.65
2022-08-04T18:55:01.869Z,1.80
2022-08-04T18:57:58.702Z,1.58
2022-08-04T19:00:19.777Z,1.38
2022-08-04T19:02:47.492Z,1.70
2022-08-04T19:05:17.534Z,1.40
2022-08-04T19:08:02.613Z,2.13
2022-08-04T19:10:32.772Z,1.70
2022-08-04T19:13:01.461Z,1.30
2022-08-04T19:15:34.487Z,1.88
2022-08-04T19:18:02.296Z,1.55
2022-08-04T19:20:33.721Z,1.17
2022-08-04T19:24:30.194Z,1.27
2022-08-04T19:26:02.513Z,1.25
2022-08-04T19:28:34.992Z,1.55
2022-08-04T19:31:04.433Z,1.67
2022-08-04T19:33:59.246Z,1.30
2022-08-04T19:36:19.512Z,1.45
2022-08-04T19:38:46.409Z,1.80
2022-08-04T19:41:15.253Z,1.45
2022-08-04T19:43:46.704Z,1.65
2022-08-04T19:46:14.846Z,1.38
2022-08-04T19:48:44.626Z,1.40
2022-08-04T19:51:27.806Z,1.50
2022-08-04T19:53:59.409Z,1.33
2022-08-04T19:56:40.576Z,1.20
2022-08-04T19:59:09.789Z,1.10
2022-08-04T20:01:44.935Z,1.20
2022-08-04T20:04:15.659Z,1.38
2022-08-04T20:06:42.873Z,1.33
2022-08-04T20:09:25.098Z,1.42
2022-08-04T20:11:57.151Z,1.65
2022-08-04T20:14:31.510Z,1.80
2022-08-04T20:17:12.128Z,1.30
2022-08-04T20:19:51.006Z,1.20
2022-08-04T20:25:27.270Z,1.40
2022-08-04T20:30:42.552Z,1.52
2022-08-04T20:33:09.987Z,1.60
2022-08-04T20:36:03.228Z,1.30
2022-08-04T20:38:32.813Z,1.30
2022-08-04T20:41:00.599Z,1.50
2022-08-04T20:43:28.173Z,1.52
2022-08-04T20:45:59.620Z,1.60
2022-08-04T20:48:33.589Z,1.58
2022-08-04T20:51:00.663Z,1.70
2022-08-04T20:53:46.898Z,1.50
2022-08-04T20:56:19.159Z,1.23
2022-08-04T20:58:58.354Z,1.20
2022-08-04T21:01:29.716Z,0.98
2022-08-04T21:04:27.313Z,1.30
2022-08-04T21:06:56.214Z,1.40
2022-08-04T21:09:37.120Z,1.10
2022-08-04T21:12:06.942Z,1.33
2022-08-04T21:14:34.708Z,1.15
2022-08-04T21:17:03.820Z,0.90
2022-08-04T21:19:31.711Z,0.93
2022-08-04T21:21:58.721Z,1.10
2022-08-04T21:24:26.442Z,0.80
2022-08-04T21:26:56.581Z,1.00
2022-08-04T21:32:12.000Z,1.05
2022-08-04T21:34:40.656Z,1.27
2022-08-04T21:37:10.379Z,1.20
2022-08-04T21:39:50.663Z,1.00
2022-08-04T21:42:28.677Z,1.10
2022-08-04T21:44:57.342Z,1.35
2022-08-04T21:47:24.158Z,1.40
2022-08-04T21:49:56.420Z,1.10
2022-08-04T21:52:24.730Z,1.20
2022-08-04T21:54:54.502Z,1.20
2022-08-04T21:57:24.812Z,0.90
2022-08-04T21:59:52.580Z,0.82
2022-08-04T22:02:19.481Z,1.00
2022-08-04T22:04:48.126Z,1.10
2022-08-04T22:07:16.588Z,1.20
2022-08-04T22:10:00.156Z,1.10
2022-08-04T22:12:27.308Z,1.00
2022-08-04T22:14:57.718Z,1.30
2022-08-04T22:17:35.009Z,1.00
2022-08-04T22:20:02.806Z,1.08
2022-08-04T22:22:29.949Z,0.88
2022-08-04T22:25:01.287Z,1.10
2022-08-04T22:27:55.115Z,1.13
2022-08-04T22:30:22.454Z,1.20
2022-08-04T22:32:50.383Z,1.20
2022-08-04T22:35:43.661Z,1.30
2022-08-04T22:38:24.182Z,1.20
2022-08-04T22:41:03.723Z,1.13
2022-08-04T22:43:34.447Z,1.40
2022-08-04T22:46:07.303Z,1.10
2022-08-04T22:48:38.848Z,1.20
2022-08-04T22:51:07.298Z,1.10
2022-08-04T22:53:34.506Z,1.20
2022-08-04T22:56:09.435Z,1.20
2022-08-04T22:58:45.477Z,1.30
2022-08-04T23:01:18.724Z,1.20
2022-08-04T23:03:50.907Z,1.35
2022-08-04T23:06:24.653Z,0.93
2022-08-04T23:08:51.847Z,1.10
2022-08-04T23:11:18.740Z,1.40
2022-08-04T23:13:45.603Z,1.33
2022-08-04T23:16:14.086Z,1.58
2022-08-04T23:18:42.255Z,1.88
2022-08-04T23:21:12.114Z,1.65
2022-08-04T23:23:45.598Z,1.58
2022-08-04T23:26:27.428Z,1.77
2022-08-04T23:28:56.155Z,1.70
2022-08-04T23:31:23.406Z,1.77
2022-08-04T23:33:52.157Z,1.75
2022-08-04T23:36:29.935Z,1.60
2022-08-04T23:39:03.932Z,1.88
2022-08-04T23:41:55.292Z,1.50
2022-08-04T23:44:24.420Z,1.55
2022-08-04T23:46:58.285Z,1.83
2022-08-04T23:49:25.243Z,1.73
2022-08-04T23:52:07.617Z,1.70
2022-08-04T23:54:42.757Z,1.70
2022-08-04T23:57:17.263Z,2.10
2022-08-04T23:59:52.156Z,2.22
